Airfield :
LOGIN :

Register | Disclaimer

   EN    FR    IT 

 










Legend :    VFR   Marginal VFR   IFR   Intensive IFR   Very Intensive IFR
Visi :
Ceiling :
>= 8 km
>= 3000ft
5 to 8 km
1000 to 3000 ft
1500m to 5 km
500 to 1000 ft
800 to 1500m
200 to 500 ft
< 800m
< 200 ft
Symbols :   Thunderstorms  Fog  Heavy snow  Heavy precipitations  Wind > 20 kt
SIGMETs :     Misc.  Thunderstorms  Icing  Turbulence  Mountain Waves  Volcanic Ashes






- Airport Elevation : 416 ft
- IATA code : OVD


LEAS - Asturias

CURRENT METAR :
  • 030130Z AUTO 31003KT 290V350 2500 BR OVC004 17/17 Q1013

EXPIRED METARs :
  • 030100Z AUTO VRB02KT 2900 BR OVC004 17/17 Q1013
  • 030030Z AUTO 30003KT 2300 BR BKN005 16/15 Q1014
  • 030000Z AUTO 33002KT 2800 BR SCT005 BKN009 17/16 Q1014
  • 022330Z AUTO VRB01KT 4400 BR NSC 16/16 Q1014
  • 022300Z AUTO 10001KT 5000 BR NSC 17/16 Q1014

TAF TAF LEAS
Valid from the 02 at 21:00 until the 03 at 21:00 UTC


022000Z 0221/0321 VRB05KT 8000 SCT010 TX19/0315Z TN15/0306Z
TEMPO 0221/0318 3000 BR BKN010
TEMPO 0221/0318 BKN005
PROB30
TEMPO 0300/0308 0350 FG VV001
BECMG 0310/0312 31010KT



MET'MAP, your aeronautical weather chart ! - Copyright ORBIFLY December 2007 - Disclaimer

ORBIFLY MET'MAP TEAM :

Programming & Development : Alexandra Zaïnal
Concept & original design : Baudouin d'Aumeries
Assistance for programming : Marc-Olivier Méhu
Technical & hardware support : Manuel Goepfert

Contact : metmap@orbifly.com




SOURCES & CREDITS :

   NOAA